메인 페이지
METAR-TAF:

METAR-TAF

공항 :

새스커툰, 서스캐처원, 캐나다

위도: 52-10N, 경도: 106-41W, 고도: 501m

현재 날씨관측

예보는 58분 전, 20:00시(UTC)에 발표되었습니다.
15kt, 순간 최대 풍속 20kt
온도 12°C
습도 35%
기압 1026 hPa
시정: 24.1km
고도 10000ft 상공 구름 조금
고도 30000ft 상공 구름 조금

METAR: CYXE 192000Z 19015G20KT 15SM FEW100 FEW300 12/M03 A3030 RMK AC1CI1 SLP282

시각: 14:58 (20:58 UTC)

예보

예보는 3 시간 19분 전, 17:39시(UTC)에 발표되었습니다.
예보 대상 시간: 19일 18시부터 20일 18시까지 (UTC)
15kt
시정: 10km
고도 10000ft 상공 구름 조금
20일 1100시부터 (UTC)
12kt
시정: 10km
고도 7000ft 상공 구름 보통
일시적
20일 11시부터 20일 14시까지 (UTC)
고도 7000ft 상공 구름 많음

TAF: CYXE 191739Z 1918/2018 18015KT P6SM FEW100 FM201100 17012KT P6SM SCT070 TEMPO 2011/2014 BKN070 RMK NXT FCST BY 200000Z

4,000개 이상의 공항 관측 자료 및 예보 (METAR 및 TAF 보고).

지도상에서 검색 가능한 기상관측소가 노란 점과 빨간 점으로 표시되어 있습니다.

기상관측소 명을 보려면 표시 위로 마우스를 이동하세요.

날씨 관측과 예보를 보려면 클릭하세요.

지도 변경 : 확대하려면 엑스 표시가 있는 녹색 버튼, 축소하려면 빼기 표시가 있는 녹색 버튼, 다음 페이지의 지도를 보려면 녹색 화살표를 클릭하세요.


METAR-TAF: